sensor_id;sensor_type;location;lat;lon;timestamp;temperature;humidity
25450;DHT22;13371;52.080;5.624;2023-10-13T00:02:05;20.00;99.90
25450;DHT22;13371;52.080;5.624;2023-10-13T00:04:32;19.90;99.90
25450;DHT22;13371;52.080;5.624;2023-10-13T00:07:07;19.80;99.90
25450;DHT22;13371;52.080;5.624;2023-10-13T00:09:53;19.90;99.90
25450;DHT22;13371;52.080;5.624;2023-10-13T00:12:19;20.00;99.90
25450;DHT22;13371;52.080;5.624;2023-10-13T00:14:51;19.80;99.90
25450;DHT22;13371;52.080;5.624;2023-10-13T00:17:17;19.70;99.90
25450;DHT22;13371;52.080;5.624;2023-10-13T00:19:45;19.80;99.90
25450;DHT22;13371;52.080;5.624;2023-10-13T00:22:13;19.90;99.90
25450;DHT22;13371;52.080;5.624;2023-10-13T00:24:43;19.80;99.90
25450;DHT22;13371;52.080;5.624;2023-10-13T00:27:13;19.70;99.90
25450;DHT22;13371;52.080;5.624;2023-10-13T00:29:58;19.70;99.90
25450;DHT22;13371;52.080;5.624;2023-10-13T00:32:47;19.80;99.90
25450;DHT22;13371;52.080;5.624;2023-10-13T00:35:18;19.70;99.90
25450;DHT22;13371;52.080;5.624;2023-10-13T00:37:58;19.80;99.90
25450;DHT22;13371;52.080;5.624;2023-10-13T00:40:30;19.90;99.90
25450;DHT22;13371;52.080;5.624;2023-10-13T00:42:59;19.70;99.90
25450;DHT22;13371;52.080;5.624;2023-10-13T00:45:48;19.50;99.90
25450;DHT22;13371;52.080;5.624;2023-10-13T00:48:21;19.50;99.90
25450;DHT22;13371;52.080;5.624;2023-10-13T00:50:50;19.50;99.90
25450;DHT22;13371;52.080;5.624;2023-10-13T00:53:16;19.50;99.90
25450;DHT22;13371;52.080;5.624;2023-10-13T00:55:41;19.60;99.90
25450;DHT22;13371;52.080;5.624;2023-10-13T00:58:08;19.70;99.90
25450;DHT22;13371;52.080;5.624;2023-10-13T01:00:38;19.70;99.90
25450;DHT22;13371;52.080;5.624;2023-10-13T01:03:12;19.80;99.90
25450;DHT22;13371;52.080;5.624;2023-10-13T01:05:39;19.60;99.90
25450;DHT22;13371;52.080;5.624;2023-10-13T01:08:06;19.70;99.90
25450;DHT22;13371;52.080;5.624;2023-10-13T01:10:36;19.60;99.90
25450;DHT22;13371;52.080;5.624;2023-10-13T01:13:03;19.60;99.90
25450;DHT22;13371;52.080;5.624;2023-10-13T01:15:28;19.80;99.90
25450;DHT22;13371;52.080;5.624;2023-10-13T01:18:09;19.80;99.90
25450;DHT22;13371;52.080;5.624;2023-10-13T01:20:39;19.90;99.90
25450;DHT22;13371;52.080;5.624;2023-10-13T01:23:12;19.80;99.90
25450;DHT22;13371;52.080;5.624;2023-10-13T01:25:44;19.80;99.90
25450;DHT22;13371;52.080;5.624;2023-10-13T01:28:11;19.90;99.90
25450;DHT22;13371;52.080;5.624;2023-10-13T01:30:42;19.70;99.90
25450;DHT22;13371;52.080;5.624;2023-10-13T01:33:07;19.70;99.90
25450;DHT22;13371;52.080;5.624;2023-10-13T01:35:34;19.60;99.90
25450;DHT22;13371;52.080;5.624;2023-10-13T01:38:13;19.70;99.90
25450;DHT22;13371;52.080;5.624;2023-10-13T01:40:39;19.90;99.90
25450;DHT22;13371;52.080;5.624;2023-10-13T01:43:04;19.90;99.90
25450;DHT22;13371;52.080;5.624;2023-10-13T01:45:36;19.90;99.90
25450;DHT22;13371;52.080;5.624;2023-10-13T01:48:04;19.70;99.90
25450;DHT22;13371;52.080;5.624;2023-10-13T01:50:32;19.70;99.90
25450;DHT22;13371;52.080;5.624;2023-10-13T01:52:57;19.60;99.90
25450;DHT22;13371;52.080;5.624;2023-10-13T01:55:39;19.50;99.90
25450;DHT22;13371;52.080;5.624;2023-10-13T01:58:11;19.40;99.90
25450;DHT22;13371;52.080;5.624;2023-10-13T02:00:44;19.40;99.90
25450;DHT22;13371;52.080;5.624;2023-10-13T02:03:11;19.40;99.90
25450;DHT22;13371;52.080;5.624;2023-10-13T02:05:43;19.20;99.90
25450;DHT22;13371;52.080;5.624;2023-10-13T02:08:13;19.40;99.90
25450;DHT22;13371;52.080;5.624;2023-10-13T02:10:43;19.40;99.90
25450;DHT22;13371;52.080;5.624;2023-10-13T02:13:13;19.30;99.90
25450;DHT22;13371;52.080;5.624;2023-10-13T02:15:41;19.40;99.90
25450;DHT22;13371;52.080;5.624;2023-10-13T02:18:14;19.30;99.90
25450;DHT22;13371;52.080;5.624;2023-10-13T02:20:48;19.30;99.90
25450;DHT22;13371;52.080;5.624;2023-10-13T02:23:24;19.50;99.90
25450;DHT22;13371;52.080;5.624;2023-10-13T02:25:50;19.50;99.90
25450;DHT22;13371;52.080;5.624;2023-10-13T02:28:27;19.60;99.90
25450;DHT22;13371;52.080;5.624;2023-10-13T02:30:56;19.70;99.90
25450;DHT22;13371;52.080;5.624;2023-10-13T02:33:23;19.60;99.90
25450;DHT22;13371;52.080;5.624;2023-10-13T02:35:57;19.40;99.90
25450;DHT22;13371;52.080;5.624;2023-10-13T02:38:23;19.50;99.90
25450;DHT22;13371;52.080;5.624;2023-10-13T02:41:04;19.40;99.90
25450;DHT22;13371;52.080;5.624;2023-10-13T02:43:36;19.50;99.90
25450;DHT22;13371;52.080;5.624;2023-10-13T02:46:02;19.60;99.90
25450;DHT22;13371;52.080;5.624;2023-10-13T02:48:28;19.50;99.90
25450;DHT22;13371;52.080;5.624;2023-10-13T02:50:58;19.70;99.90
25450;DHT22;13371;52.080;5.624;2023-10-13T02:53:28;19.60;99.90
25450;DHT22;13371;52.080;5.624;2023-10-13T02:55:54;19.80;99.90
25450;DHT22;13371;52.080;5.624;2023-10-13T02:58:31;19.70;99.90
25450;DHT22;13371;52.080;5.624;2023-10-13T03:01:06;19.60;99.90
25450;DHT22;13371;52.080;5.624;2023-10-13T03:03:47;19.80;99.90
25450;DHT22;13371;52.080;5.624;2023-10-13T03:06:15;19.90;99.90
25450;DHT22;13371;52.080;5.624;2023-10-13T03:08:41;19.80;99.90
25450;DHT22;13371;52.080;5.624;2023-10-13T03:11:09;20.00;99.90
25450;DHT22;13371;52.080;5.624;2023-10-13T03:13:35;20.00;99.90
25450;DHT22;13371;52.080;5.624;2023-10-13T03:16:10;20.00;99.90
25450;DHT22;13371;52.080;5.624;2023-10-13T03:18:36;19.80;99.90
25450;DHT22;13371;52.080;5.624;2023-10-13T03:21:03;20.00;99.90
25450;DHT22;13371;52.080;5.624;2023-10-13T03:23:29;20.10;99.90
25450;DHT22;13371;52.080;5.624;2023-10-13T03:26:10;20.10;99.90
25450;DHT22;13371;52.080;5.624;2023-10-13T03:28:36;20.00;99.90
25450;DHT22;13371;52.080;5.624;2023-10-13T03:31:03;20.00;99.90
25450;DHT22;13371;52.080;5.624;2023-10-13T03:33:29;20.10;99.90
25450;DHT22;13371;52.080;5.624;2023-10-13T03:35:58;19.90;99.90
25450;DHT22;13371;52.080;5.624;2023-10-13T03:38:31;19.90;99.90
25450;DHT22;13371;52.080;5.624;2023-10-13T03:41:02;19.60;99.90
25450;DHT22;13371;52.080;5.624;2023-10-13T03:43:43;19.60;99.90
25450;DHT22;13371;52.080;5.624;2023-10-13T03:46:17;19.40;99.90
25450;DHT22;13371;52.080;5.624;2023-10-13T03:48:47;19.30;99.90
25450;DHT22;13371;52.080;5.624;2023-10-13T03:51:26;19.40;99.90
25450;DHT22;13371;52.080;5.624;2023-10-13T03:53:56;19.60;99.90
25450;DHT22;13371;52.080;5.624;2023-10-13T03:58:52;19.80;99.90
25450;DHT22;13371;52.080;5.624;2023-10-13T04:01:21;19.50;99.90
25450;DHT22;13371;52.080;5.624;2023-10-13T04:04:00;19.50;99.90
25450;DHT22;13371;52.080;5.624;2023-10-13T04:06:32;19.60;99.90
25450;DHT22;13371;52.080;5.624;2023-10-13T04:09:22;19.50;99.90
25450;DHT22;13371;52.080;5.624;2023-10-13T04:12:01;19.50;99.90
25450;DHT22;13371;52.080;5.624;2023-10-13T04:17:14;19.30;99.90
25450;DHT22;13371;52.080;5.624;2023-10-13T04:19:43;19.10;99.90
25450;DHT22;13371;52.080;5.624;2023-10-13T04:22:28;19.30;99.90
25450;DHT22;13371;52.080;5.624;2023-10-13T04:25:23;19.10;99.90
25450;DHT22;13371;52.080;5.624;2023-10-13T04:30:41;19.00;99.90
25450;DHT22;13371;52.080;5.624;2023-10-13T04:33:19;19.00;99.90
25450;DHT22;13371;52.080;5.624;2023-10-13T04:36:07;19.00;99.90
25450;DHT22;13371;52.080;5.624;2023-10-13T04:38:47;19.00;99.90
25450;DHT22;13371;52.080;5.624;2023-10-13T04:44:10;18.80;99.90
25450;DHT22;13371;52.080;5.624;2023-10-13T04:46:55;18.70;99.90
25450;DHT22;13371;52.080;5.624;2023-10-13T04:49:31;18.70;99.90
25450;DHT22;13371;52.080;5.624;2023-10-13T04:52:01;18.80;99.90
25450;DHT22;13371;52.080;5.624;2023-10-13T04:54:33;18.80;99.90
25450;DHT22;13371;52.080;5.624;2023-10-13T04:57:11;18.60;99.90
25450;DHT22;13371;52.080;5.624;2023-10-13T04:59:55;18.40;99.90
25450;DHT22;13371;52.080;5.624;2023-10-13T05:02:43;18.70;99.90
25450;DHT22;13371;52.080;5.624;2023-10-13T05:05:22;18.90;99.90
25450;DHT22;13371;52.080;5.624;2023-10-13T05:07:50;18.90;99.90
25450;DHT22;13371;52.080;5.624;2023-10-13T05:10:36;19.10;99.90
25450;DHT22;13371;52.080;5.624;2023-10-13T05:13:20;18.70;99.90
25450;DHT22;13371;52.080;5.624;2023-10-13T05:16:04;18.80;99.90
25450;DHT22;13371;52.080;5.624;2023-10-13T05:18:49;18.90;99.90
25450;DHT22;13371;52.080;5.624;2023-10-13T05:21:33;18.90;99.90
25450;DHT22;13371;52.080;5.624;2023-10-13T05:24:17;18.90;99.90
25450;DHT22;13371;52.080;5.624;2023-10-13T05:27:01;18.90;99.90
25450;DHT22;13371;52.080;5.624;2023-10-13T05:29:47;19.10;99.90
25450;DHT22;13371;52.080;5.624;2023-10-13T05:32:32;19.10;99.90
25450;DHT22;13371;52.080;5.624;2023-10-13T05:35:16;19.10;99.90
25450;DHT22;13371;52.080;5.624;2023-10-13T05:38:00;19.10;99.90
25450;DHT22;13371;52.080;5.624;2023-10-13T05:40:59;19.00;99.90
25450;DHT22;13371;52.080;5.624;2023-10-13T05:43:44;18.70;99.90
25450;DHT22;13371;52.080;5.624;2023-10-13T05:46:28;18.80;99.90
25450;DHT22;13371;52.080;5.624;2023-10-13T05:49:07;18.80;99.90
25450;DHT22;13371;52.080;5.624;2023-10-13T05:51:33;19.10;99.90
25450;DHT22;13371;52.080;5.624;2023-10-13T05:54:10;19.10;99.90
25450;DHT22;13371;52.080;5.624;2023-10-13T05:56:42;19.30;99.90
25450;DHT22;13371;52.080;5.624;2023-10-13T05:59:27;19.50;99.90
25450;DHT22;13371;52.080;5.624;2023-10-13T06:02:12;19.60;99.90
25450;DHT22;13371;52.080;5.624;2023-10-13T06:04:56;19.60;99.90
25450;DHT22;13371;52.080;5.624;2023-10-13T06:07:42;19.50;99.90
25450;DHT22;13371;52.080;5.624;2023-10-13T06:10:27;19.60;99.90
25450;DHT22;13371;52.080;5.624;2023-10-13T06:13:11;19.60;99.90
25450;DHT22;13371;52.080;5.624;2023-10-13T06:15:55;19.70;99.90
25450;DHT22;13371;52.080;5.624;2023-10-13T06:18:39;19.90;99.90
25450;DHT22;13371;52.080;5.624;2023-10-13T06:21:23;19.90;99.90
25450;DHT22;13371;52.080;5.624;2023-10-13T06:24:07;20.20;99.90
25450;DHT22;13371;52.080;5.624;2023-10-13T06:26:52;20.30;99.90
25450;DHT22;13371;52.080;5.624;2023-10-13T06:29:36;20.30;99.90
25450;DHT22;13371;52.080;5.624;2023-10-13T06:32:01;20.00;99.90
25450;DHT22;13371;52.080;5.624;2023-10-13T06:34:30;19.80;99.90
25450;DHT22;13371;52.080;5.624;2023-10-13T06:37:12;19.90;99.90
25450;DHT22;13371;52.080;5.624;2023-10-13T06:40:00;20.10;99.90
25450;DHT22;13371;52.080;5.624;2023-10-13T06:42:32;20.00;99.90
25450;DHT22;13371;52.080;5.624;2023-10-13T06:45:00;20.10;99.90
25450;DHT22;13371;52.080;5.624;2023-10-13T06:47:28;20.40;99.90
25450;DHT22;13371;52.080;5.624;2023-10-13T06:49:54;20.20;99.90
25450;DHT22;13371;52.080;5.624;2023-10-13T06:52:22;20.20;99.90
25450;DHT22;13371;52.080;5.624;2023-10-13T06:54:51;20.30;99.90
25450;DHT22;13371;52.080;5.624;2023-10-13T06:57:21;20.10;99.90
25450;DHT22;13371;52.080;5.624;2023-10-13T06:59:47;20.00;99.90
25450;DHT22;13371;52.080;5.624;2023-10-13T07:02:13;19.90;99.90
25450;DHT22;13371;52.080;5.624;2023-10-13T07:04:48;20.00;99.90
25450;DHT22;13371;52.080;5.624;2023-10-13T07:07:22;19.80;99.90
25450;DHT22;13371;52.080;5.624;2023-10-13T07:09:49;19.90;99.90
25450;DHT22;13371;52.080;5.624;2023-10-13T07:12:21;19.80;99.90
25450;DHT22;13371;52.080;5.624;2023-10-13T07:14:52;19.90;99.90
25450;DHT22;13371;52.080;5.624;2023-10-13T07:17:21;19.90;99.90
25450;DHT22;13371;52.080;5.624;2023-10-13T07:19:54;19.80;99.90
25450;DHT22;13371;52.080;5.624;2023-10-13T07:22:21;19.60;99.90
25450;DHT22;13371;52.080;5.624;2023-10-13T07:24:50;19.90;99.90
25450;DHT22;13371;52.080;5.624;2023-10-13T07:27:24;19.90;99.90
25450;DHT22;13371;52.080;5.624;2023-10-13T07:29:55;19.70;99.90
25450;DHT22;13371;52.080;5.624;2023-10-13T07:32:40;19.60;99.90
25450;DHT22;13371;52.080;5.624;2023-10-13T07:35:15;19.40;99.90
25450;DHT22;13371;52.080;5.624;2023-10-13T07:37:46;19.60;99.90
25450;DHT22;13371;52.080;5.624;2023-10-13T07:40:18;19.50;99.90
25450;DHT22;13371;52.080;5.624;2023-10-13T07:42:49;19.60;99.90
25450;DHT22;13371;52.080;5.624;2023-10-13T07:45:15;19.40;99.90
25450;DHT22;13371;52.080;5.624;2023-10-13T07:47:50;19.50;99.90
25450;DHT22;13371;52.080;5.624;2023-10-13T07:50:16;19.50;99.90
25450;DHT22;13371;52.080;5.624;2023-10-13T07:52:50;19.40;99.90
25450;DHT22;13371;52.080;5.624;2023-10-13T07:55:31;19.50;99.90
25450;DHT22;13371;52.080;5.624;2023-10-13T07:58:00;19.60;99.90
25450;DHT22;13371;52.080;5.624;2023-10-13T08:00:26;19.60;99.90
25450;DHT22;13371;52.080;5.624;2023-10-13T08:03:04;19.50;99.90
25450;DHT22;13371;52.080;5.624;2023-10-13T08:05:35;19.50;99.90
25450;DHT22;13371;52.080;5.624;2023-10-13T08:08:20;19.60;99.90
25450;DHT22;13371;52.080;5.624;2023-10-13T08:10:47;19.60;99.90
25450;DHT22;13371;52.080;5.624;2023-10-13T08:13:12;19.70;99.90
25450;DHT22;13371;52.080;5.624;2023-10-13T08:15:42;19.70;99.90
25450;DHT22;13371;52.080;5.624;2023-10-13T08:18:14;19.50;99.90
25450;DHT22;13371;52.080;5.624;2023-10-13T08:21:00;19.60;99.90
25450;DHT22;13371;52.080;5.624;2023-10-13T08:23:29;19.60;99.90
25450;DHT22;13371;52.080;5.624;2023-10-13T08:26:27;19.70;99.90
25450;DHT22;13371;52.080;5.624;2023-10-13T08:29:02;19.80;99.90
25450;DHT22;13371;52.080;5.624;2023-10-13T08:31:52;19.80;99.90
25450;DHT22;13371;52.080;5.624;2023-10-13T08:34:30;19.80;99.90
25450;DHT22;13371;52.080;5.624;2023-10-13T08:37:07;20.10;99.90
25450;DHT22;13371;52.080;5.624;2023-10-13T08:39:52;20.00;99.90
25450;DHT22;13371;52.080;5.624;2023-10-13T08:42:44;20.00;99.90
25450;DHT22;13371;52.080;5.624;2023-10-13T08:45:16;20.40;99.90
25450;DHT22;13371;52.080;5.624;2023-10-13T08:47:49;20.40;99.90
25450;DHT22;13371;52.080;5.624;2023-10-13T08:50:49;20.40;99.90
25450;DHT22;13371;52.080;5.624;2023-10-13T08:53:28;20.40;99.90
25450;DHT22;13371;52.080;5.624;2023-10-13T08:58:29;20.30;99.90
25450;DHT22;13371;52.080;5.624;2023-10-13T09:01:15;20.20;99.90
25450;DHT22;13371;52.080;5.624;2023-10-13T09:06:57;20.40;99.90
25450;DHT22;13371;52.080;5.624;2023-10-13T09:12:20;20.50;99.90
25450;DHT22;13371;52.080;5.624;2023-10-13T09:14:53;20.50;99.90
25450;DHT22;13371;52.080;5.624;2023-10-13T09:17:31;20.60;99.90
25450;DHT22;13371;52.080;5.624;2023-10-13T09:20:01;20.50;99.90
25450;DHT22;13371;52.080;5.624;2023-10-13T09:22:46;20.40;99.90
25450;DHT22;13371;52.080;5.624;2023-10-13T09:25:41;20.40;99.90
25450;DHT22;13371;52.080;5.624;2023-10-13T09:28:19;20.40;99.90
25450;DHT22;13371;52.080;5.624;2023-10-13T09:30:48;20.70;99.90
25450;DHT22;13371;52.080;5.624;2023-10-13T09:33:18;20.70;99.90
25450;DHT22;13371;52.080;5.624;2023-10-13T09:35:53;20.60;99.90
25450;DHT22;13371;52.080;5.624;2023-10-13T09:38:19;20.50;99.90
25450;DHT22;13371;52.080;5.624;2023-10-13T09:40:46;20.50;99.90
25450;DHT22;13371;52.080;5.624;2023-10-13T09:43:19;20.50;99.90
25450;DHT22;13371;52.080;5.624;2023-10-13T09:45:47;20.60;99.90
25450;DHT22;13371;52.080;5.624;2023-10-13T09:48:38;20.70;99.90
25450;DHT22;13371;52.080;5.624;2023-10-13T09:51:12;20.70;99.90
25450;DHT22;13371;52.080;5.624;2023-10-13T09:53:41;20.60;99.90
25450;DHT22;13371;52.080;5.624;2023-10-13T09:56:14;20.70;99.90
25450;DHT22;13371;52.080;5.624;2023-10-13T09:59:08;20.80;99.90
25450;DHT22;13371;52.080;5.624;2023-10-13T10:01:41;20.60;99.90
25450;DHT22;13371;52.080;5.624;2023-10-13T10:04:18;20.80;99.90
25450;DHT22;13371;52.080;5.624;2023-10-13T10:06:55;20.70;99.90
25450;DHT22;13371;52.080;5.624;2023-10-13T10:09:27;20.70;99.90
25450;DHT22;13371;52.080;5.624;2023-10-13T10:15:29;20.60;99.90
25450;DHT22;13371;52.080;5.624;2023-10-13T10:18:00;20.80;99.90
25450;DHT22;13371;52.080;5.624;2023-10-13T10:20:35;20.70;99.90
25450;DHT22;13371;52.080;5.624;2023-10-13T10:23:08;20.70;99.90
25450;DHT22;13371;52.080;5.624;2023-10-13T10:25:50;20.70;99.90
25450;DHT22;13371;52.080;5.624;2023-10-13T10:28:17;20.70;99.90
25450;DHT22;13371;52.080;5.624;2023-10-13T10:30:44;20.60;99.90
25450;DHT22;13371;52.080;5.624;2023-10-13T10:33:11;20.90;99.90
25450;DHT22;13371;52.080;5.624;2023-10-13T10:35:47;21.00;99.90
25450;DHT22;13371;52.080;5.624;2023-10-13T10:38:23;21.10;99.90
25450;DHT22;13371;52.080;5.624;2023-10-13T10:43:18;21.00;99.90
25450;DHT22;13371;52.080;5.624;2023-10-13T10:45:47;20.90;99.90
25450;DHT22;13371;52.080;5.624;2023-10-13T10:48:16;20.80;99.90
25450;DHT22;13371;52.080;5.624;2023-10-13T10:50:50;20.70;99.90
25450;DHT22;13371;52.080;5.624;2023-10-13T10:53:20;20.80;99.90
25450;DHT22;13371;52.080;5.624;2023-10-13T10:55:47;21.00;99.90
25450;DHT22;13371;52.080;5.624;2023-10-13T10:58:12;21.00;99.90
25450;DHT22;13371;52.080;5.624;2023-10-13T11:01:05;21.00;99.90
25450;DHT22;13371;52.080;5.624;2023-10-13T11:03:37;21.20;99.90
25450;DHT22;13371;52.080;5.624;2023-10-13T11:06:04;21.30;99.90
25450;DHT22;13371;52.080;5.624;2023-10-13T11:08:35;21.30;99.90
25450;DHT22;13371;52.080;5.624;2023-10-13T11:11:03;21.40;99.90
25450;DHT22;13371;52.080;5.624;2023-10-13T11:13:43;21.50;99.90
25450;DHT22;13371;52.080;5.624;2023-10-13T11:16:45;21.70;99.90
25450;DHT22;13371;52.080;5.624;2023-10-13T11:19:19;21.60;99.90
25450;DHT22;13371;52.080;5.624;2023-10-13T11:21:52;21.40;99.90
25450;DHT22;13371;52.080;5.624;2023-10-13T11:24:19;21.50;99.90
25450;DHT22;13371;52.080;5.624;2023-10-13T11:26:47;21.40;99.90
25450;DHT22;13371;52.080;5.624;2023-10-13T11:29:19;21.40;99.90
25450;DHT22;13371;52.080;5.624;2023-10-13T11:31:48;21.40;99.90
25450;DHT22;13371;52.080;5.624;2023-10-13T11:34:24;21.40;99.90
25450;DHT22;13371;52.080;5.624;2023-10-13T11:36:51;21.30;99.90
25450;DHT22;13371;52.080;5.624;2023-10-13T11:39:17;21.20;99.90
25450;DHT22;13371;52.080;5.624;2023-10-13T11:41:49;21.40;99.90
25450;DHT22;13371;52.080;5.624;2023-10-13T11:44:20;21.50;99.90
25450;DHT22;13371;52.080;5.624;2023-10-13T11:46:46;21.40;99.90
25450;DHT22;13371;52.080;5.624;2023-10-13T11:49:12;21.40;99.90
25450;DHT22;13371;52.080;5.624;2023-10-13T11:51:44;21.50;99.90
25450;DHT22;13371;52.080;5.624;2023-10-13T11:54:17;21.40;99.90
25450;DHT22;13371;52.080;5.624;2023-10-13T11:56:44;21.50;99.90
25450;DHT22;13371;52.080;5.624;2023-10-13T11:59:10;21.50;99.90
25450;DHT22;13371;52.080;5.624;2023-10-13T12:01:50;21.50;99.90
25450;DHT22;13371;52.080;5.624;2023-10-13T12:04:35;21.40;99.90
25450;DHT22;13371;52.080;5.624;2023-10-13T12:07:23;21.20;99.90
25450;DHT22;13371;52.080;5.624;2023-10-13T12:09:53;21.20;99.90
25450;DHT22;13371;52.080;5.624;2023-10-13T12:12:26;21.50;99.90
25450;DHT22;13371;52.080;5.624;2023-10-13T12:14:52;21.40;99.90
25450;DHT22;13371;52.080;5.624;2023-10-13T12:17:20;21.60;99.90
25450;DHT22;13371;52.080;5.624;2023-10-13T12:20:03;21.70;99.90
25450;DHT22;13371;52.080;5.624;2023-10-13T12:22:35;21.80;99.90
25450;DHT22;13371;52.080;5.624;2023-10-13T12:25:04;21.80;99.90
25450;DHT22;13371;52.080;5.624;2023-10-13T12:27:31;21.60;99.90
25450;DHT22;13371;52.080;5.624;2023-10-13T12:30:11;21.50;99.90
25450;DHT22;13371;52.080;5.624;2023-10-13T12:32:40;21.70;99.90
25450;DHT22;13371;52.080;5.624;2023-10-13T12:35:19;21.70;99.90
25450;DHT22;13371;52.080;5.624;2023-10-13T12:37:55;21.60;99.90
25450;DHT22;13371;52.080;5.624;2023-10-13T12:40:30;21.70;99.90
25450;DHT22;13371;52.080;5.624;2023-10-13T12:43:14;21.90;99.90
25450;DHT22;13371;52.080;5.624;2023-10-13T12:45:58;21.80;99.90
25450;DHT22;13371;52.080;5.624;2023-10-13T12:48:42;21.70;99.90
25450;DHT22;13371;52.080;5.624;2023-10-13T12:51:40;21.80;99.80
25450;DHT22;13371;52.080;5.624;2023-10-13T12:54:06;22.00;99.80
25450;DHT22;13371;52.080;5.624;2023-10-13T12:56:39;21.90;99.90
25450;DHT22;13371;52.080;5.624;2023-10-13T12:59:09;21.90;99.90
25450;DHT22;13371;52.080;5.624;2023-10-13T13:01:39;21.80;99.90
25450;DHT22;13371;52.080;5.624;2023-10-13T13:04:11;21.90;99.80
25450;DHT22;13371;52.080;5.624;2023-10-13T13:06:51;21.90;99.60
25450;DHT22;13371;52.080;5.624;2023-10-13T13:09:19;22.00;99.40
25450;DHT22;13371;52.080;5.624;2023-10-13T13:11:54;22.10;99.80
25450;DHT22;13371;52.080;5.624;2023-10-13T13:14:26;22.30;99.10
25450;DHT22;13371;52.080;5.624;2023-10-13T13:16:57;22.40;99.60
25450;DHT22;13371;52.080;5.624;2023-10-13T13:19:36;22.20;99.00
25450;DHT22;13371;52.080;5.624;2023-10-13T13:22:05;22.30;99.80
25450;DHT22;13371;52.080;5.624;2023-10-13T13:24:31;22.50;99.50
25450;DHT22;13371;52.080;5.624;2023-10-13T13:26:57;22.40;99.20
25450;DHT22;13371;52.080;5.624;2023-10-13T13:29:29;22.10;99.10
25450;DHT22;13371;52.080;5.624;2023-10-13T13:31:55;22.00;99.90
25450;DHT22;13371;52.080;5.624;2023-10-13T13:34:21;21.90;99.90
25450;DHT22;13371;52.080;5.624;2023-10-13T13:36:47;21.80;99.90
25450;DHT22;13371;52.080;5.624;2023-10-13T13:39:21;21.80;99.90
25450;DHT22;13371;52.080;5.624;2023-10-13T13:41:56;21.50;99.90
25450;DHT22;13371;52.080;5.624;2023-10-13T13:44:25;21.70;99.90
25450;DHT22;13371;52.080;5.624;2023-10-13T13:47:01;21.70;99.90
25450;DHT22;13371;52.080;5.624;2023-10-13T13:49:30;21.60;99.90
25450;DHT22;13371;52.080;5.624;2023-10-13T13:52:05;21.60;99.90
25450;DHT22;13371;52.080;5.624;2023-10-13T13:54:31;21.40;99.90
25450;DHT22;13371;52.080;5.624;2023-10-13T13:56:56;21.40;99.90
25450;DHT22;13371;52.080;5.624;2023-10-13T13:59:22;21.40;99.90
25450;DHT22;13371;52.080;5.624;2023-10-13T14:01:48;21.30;99.90
25450;DHT22;13371;52.080;5.624;2023-10-13T14:04:14;21.10;99.90
25450;DHT22;13371;52.080;5.624;2023-10-13T14:06:43;21.10;99.90
25450;DHT22;13371;52.080;5.624;2023-10-13T14:09:10;20.90;99.90
25450;DHT22;13371;52.080;5.624;2023-10-13T14:11:58;20.80;99.90
25450;DHT22;13371;52.080;5.624;2023-10-13T14:14:43;20.80;99.90
25450;DHT22;13371;52.080;5.624;2023-10-13T14:17:21;20.50;99.90
25450;DHT22;13371;52.080;5.624;2023-10-13T14:19:57;20.70;99.90
25450;DHT22;13371;52.080;5.624;2023-10-13T14:22:23;20.70;99.90
25450;DHT22;13371;52.080;5.624;2023-10-13T14:24:51;20.70;99.90
25450;DHT22;13371;52.080;5.624;2023-10-13T14:27:23;20.80;99.90
25450;DHT22;13371;52.080;5.624;2023-10-13T14:29:51;20.60;99.90
25450;DHT22;13371;52.080;5.624;2023-10-13T14:32:20;20.60;99.90
25450;DHT22;13371;52.080;5.624;2023-10-13T14:34:50;20.60;99.90
25450;DHT22;13371;52.080;5.624;2023-10-13T14:37:20;20.60;99.90
25450;DHT22;13371;52.080;5.624;2023-10-13T14:39:54;20.60;99.90
25450;DHT22;13371;52.080;5.624;2023-10-13T14:42:27;20.60;99.90
25450;DHT22;13371;52.080;5.624;2023-10-13T14:44:53;20.50;99.90
25450;DHT22;13371;52.080;5.624;2023-10-13T14:47:24;20.40;99.90
25450;DHT22;13371;52.080;5.624;2023-10-13T14:49:54;20.50;99.90
25450;DHT22;13371;52.080;5.624;2023-10-13T14:52:21;20.50;99.90
25450;DHT22;13371;52.080;5.624;2023-10-13T14:54:47;20.40;99.90
25450;DHT22;13371;52.080;5.624;2023-10-13T14:57:13;20.40;99.90
25450;DHT22;13371;52.080;5.624;2023-10-13T14:59:39;20.50;99.90
25450;DHT22;13371;52.080;5.624;2023-10-13T15:02:05;20.40;99.90
25450;DHT22;13371;52.080;5.624;2023-10-13T15:04:30;20.40;99.90
25450;DHT22;13371;52.080;5.624;2023-10-13T15:06:59;20.40;99.90
25450;DHT22;13371;52.080;5.624;2023-10-13T15:09:27;20.30;99.90
25450;DHT22;13371;52.080;5.624;2023-10-13T15:11:53;20.30;99.90
25450;DHT22;13371;52.080;5.624;2023-10-13T15:14:19;20.30;99.90
25450;DHT22;13371;52.080;5.624;2023-10-13T15:16:49;20.30;99.90
25450;DHT22;13371;52.080;5.624;2023-10-13T15:19:14;20.50;99.90
25450;DHT22;13371;52.080;5.624;2023-10-13T15:21:42;20.60;99.90
25450;DHT22;13371;52.080;5.624;2023-10-13T15:24:08;20.30;99.90
25450;DHT22;13371;52.080;5.624;2023-10-13T15:26:41;20.40;99.90
25450;DHT22;13371;52.080;5.624;2023-10-13T15:29:11;20.30;99.90
25450;DHT22;13371;52.080;5.624;2023-10-13T15:31:40;20.40;99.90
25450;DHT22;13371;52.080;5.624;2023-10-13T15:34:12;20.50;99.90
25450;DHT22;13371;52.080;5.624;2023-10-13T15:36:42;20.50;99.90
25450;DHT22;13371;52.080;5.624;2023-10-13T15:39:09;20.60;99.90
25450;DHT22;13371;52.080;5.624;2023-10-13T15:41:36;20.60;99.90
25450;DHT22;13371;52.080;5.624;2023-10-13T15:44:10;20.40;99.90
25450;DHT22;13371;52.080;5.624;2023-10-13T15:46:37;20.20;99.90
25450;DHT22;13371;52.080;5.624;2023-10-13T15:49:02;20.30;99.90
25450;DHT22;13371;52.080;5.624;2023-10-13T15:51:32;20.30;99.90
25450;DHT22;13371;52.080;5.624;2023-10-13T15:53:58;20.40;99.90
25450;DHT22;13371;52.080;5.624;2023-10-13T15:56:25;20.50;99.90
25450;DHT22;13371;52.080;5.624;2023-10-13T15:58:51;20.40;99.90
25450;DHT22;13371;52.080;5.624;2023-10-13T16:01:17;20.60;99.90
25450;DHT22;13371;52.080;5.624;2023-10-13T16:03:45;20.60;99.90
25450;DHT22;13371;52.080;5.624;2023-10-13T16:06:18;20.70;99.90
25450;DHT22;13371;52.080;5.624;2023-10-13T16:08:44;20.90;99.90
25450;DHT22;13371;52.080;5.624;2023-10-13T16:11:14;21.00;99.90
25450;DHT22;13371;52.080;5.624;2023-10-13T16:13:44;21.10;99.90
25450;DHT22;13371;52.080;5.624;2023-10-13T16:16:17;21.10;99.90
25450;DHT22;13371;52.080;5.624;2023-10-13T16:18:43;21.20;99.90
25450;DHT22;13371;52.080;5.624;2023-10-13T16:21:13;21.40;99.90
25450;DHT22;13371;52.080;5.624;2023-10-13T16:23:43;21.50;99.90
25450;DHT22;13371;52.080;5.624;2023-10-13T16:26:14;21.40;99.90
25450;DHT22;13371;52.080;5.624;2023-10-13T16:28:40;21.50;99.90
25450;DHT22;13371;52.080;5.624;2023-10-13T16:31:06;21.40;99.90
25450;DHT22;13371;52.080;5.624;2023-10-13T16:33:34;21.40;99.90